Terminal Aerodrome Forecast
Issued by NWS Greer, SC

Home | Current Version | Previous Version | Text Only | Print | Product List | Glossary On
Versions: 1 2 3 4 5 6 7 8 9 10 11 12 13 14 15 16 17 18 19 20 21 22 23 24 25 26 27 28 29
000
FTUS42 KGSP 011123
TAFAVL
TAF
KAVL 011123Z 0112/0212 VRB02KT P6SM SCT003
      TEMPO 0112/0114 1SM BR OVC003
     FM011400 34006KT P6SM FEW045 SCT250
     FM020300 34003KT P6SM SCT045
     FM020900 VRB02KT 2SM BR FEW020 SCT045=

USA.gov is the U.S. government's official web portal to all federal, state and local government web resources and services.